createdAt,value
2022-12-06T00:01:43.062Z,99033.88
2022-12-06T00:04:15.749Z,99038.38
2022-12-06T00:06:48.131Z,99034.31
2022-12-06T00:09:22.658Z,99037.56
2022-12-06T00:11:52.783Z,99034.72
2022-12-06T00:14:22.141Z,99027.97
2022-12-06T00:16:51.960Z,99026.75
2022-12-06T00:19:24.398Z,99028.38
2022-12-06T00:21:54.427Z,99030.84
2022-12-06T00:24:25.028Z,99029.81
2022-12-06T00:26:53.846Z,99032.69
2022-12-06T00:29:24.901Z,99038.59
2022-12-06T00:31:53.878Z,99033.28
2022-12-06T00:34:22.751Z,99034.09
2022-12-06T00:36:51.454Z,99027.56
2022-12-06T00:39:20.274Z,99027.38
2022-12-06T00:41:50.395Z,99030.03
2022-12-06T00:44:19.113Z,99032.88
2022-12-06T00:46:47.931Z,99034.91
2022-12-06T00:49:16.725Z,99038.19
2022-12-06T00:51:45.502Z,99027.56
2022-12-06T00:54:16.639Z,99037.78
2022-12-06T00:56:45.617Z,99035.13
2022-12-06T00:59:15.830Z,99026.97
2022-12-06T01:01:44.633Z,99034.09
2022-12-06T01:04:13.448Z,99033.28
2022-12-06T01:06:42.160Z,99041.06
2022-12-06T01:09:12.156Z,99037.41
2022-12-06T01:11:41.214Z,99042.72
2022-12-06T01:14:37.864Z,99032.06
2022-12-06T01:17:06.615Z,99030.44
2022-12-06T01:19:35.380Z,99029.41
2022-12-06T01:22:04.131Z,99032.06
2022-12-06T01:24:32.984Z,99023.88
2022-12-06T01:27:01.670Z,99016.53
2022-12-06T01:29:30.399Z,99019.00
2022-12-06T01:32:00.581Z,99006.69
2022-12-06T01:34:29.341Z,99000.19
2022-12-06T01:36:58.018Z,98996.88
2022-12-06T01:39:26.832Z,98991.56
2022-12-06T01:41:55.693Z,98988.72
2022-12-06T01:44:46.971Z,98986.47
2022-12-06T01:47:22.340Z,98981.97
2022-12-06T01:49:56.771Z,98976.66
2022-12-06T01:52:32.723Z,98978.06
2022-12-06T01:55:03.906Z,98972.97
2022-12-06T01:57:32.926Z,98969.69
2022-12-06T02:00:02.723Z,98968.69
2022-12-06T02:02:40.770Z,98976.44
2022-12-06T02:05:10.962Z,98967.47
2022-12-06T02:07:40.977Z,98960.50
2022-12-06T02:10:11.591Z,98954.78
2022-12-06T02:12:40.599Z,98952.94
2022-12-06T02:15:11.295Z,98949.03
2022-12-06T02:17:49.695Z,98950.50
2022-12-06T02:20:28.669Z,98950.28
2022-12-06T02:23:46.710Z,98941.28
2022-12-06T02:26:40.531Z,98938.41
2022-12-06T02:29:46.064Z,98939.06
2022-12-06T02:32:22.522Z,98936.78
2022-12-06T02:35:00.621Z,98936.56
2022-12-06T02:37:38.100Z,98938.41
2022-12-06T02:40:13.582Z,98926.16
2022-12-06T02:42:51.136Z,98934.13
2022-12-06T02:45:28.055Z,98932.06
2022-12-06T02:48:03.832Z,98923.28
2022-12-06T02:50:39.747Z,98924.09
2022-12-06T02:53:14.206Z,98918.19
2022-12-06T02:55:45.283Z,98914.94
2022-12-06T02:58:14.003Z,98913.09
2022-12-06T03:00:45.471Z,98910.63
2022-12-06T03:03:57.164Z,98909.78
2022-12-06T03:07:13.901Z,98912.25
2022-12-06T03:10:00.022Z,98906.53
2022-12-06T03:12:41.352Z,98907.34
2022-12-06T03:15:17.715Z,98904.47
2022-12-06T03:17:53.626Z,98907.78
2022-12-06T03:20:30.114Z,98910.81
2022-12-06T03:23:05.590Z,98908.78
2022-12-06T03:25:37.326Z,98906.31
2022-12-06T03:28:10.467Z,98912.66
2022-12-06T03:30:42.480Z,98911.44
2022-12-06T03:33:14.200Z,98909.41
2022-12-06T03:35:48.241Z,98912.88
2022-12-06T03:38:25.970Z,98913.09
2022-12-06T03:41:02.600Z,98908.38
2022-12-06T03:43:31.739Z,98903.66
2022-12-06T03:46:08.550Z,98907.34
2022-12-06T03:48:44.012Z,98903.66
2022-12-06T03:51:19.537Z,98897.94
2022-12-06T03:53:50.798Z,98895.09
2022-12-06T03:56:19.864Z,98890.59
2022-12-06T03:58:48.715Z,98881.59
2022-12-06T04:01:18.816Z,98885.06
2022-12-06T04:03:48.067Z,98894.66
2022-12-06T04:06:18.573Z,98896.13
2022-12-06T04:08:49.402Z,98893.47
2022-12-06T04:11:18.099Z,98879.56
2022-12-06T04:13:46.869Z,98877.91
2022-12-06T04:16:34.257Z,98882.41
2022-12-06T04:19:02.989Z,98878.72
2022-12-06T04:21:50.510Z,98885.69
2022-12-06T04:24:20.148Z,98885.69
2022-12-06T04:26:48.913Z,98885.88
2022-12-06T04:29:35.273Z,98882.81
2022-12-06T04:32:21.450Z,98883.84
2022-12-06T04:35:07.882Z,98885.69
2022-12-06T04:37:55.451Z,98878.13
2022-12-06T04:40:24.174Z,98871.19
2022-12-06T04:43:06.748Z,98870.97
2022-12-06T04:45:35.454Z,98870.31
2022-12-06T04:48:04.256Z,98866.06
2022-12-06T04:50:34.022Z,98877.31
2022-12-06T04:53:04.155Z,98872.41
2022-12-06T04:55:32.927Z,98875.06
2022-12-06T04:58:01.622Z,98865.66
2022-12-06T05:00:30.436Z,98870.97
2022-12-06T05:02:59.284Z,98869.94
2022-12-06T05:05:28.097Z,98867.28
2022-12-06T05:07:56.897Z,98875.25
2022-12-06T05:10:27.203Z,98864.41
2022-12-06T05:12:56.188Z,98868.13
2022-12-06T05:15:29.009Z,98864.63
2022-12-06T05:17:58.373Z,98871.56
2022-12-06T05:20:27.488Z,98862.38
2022-12-06T05:22:56.203Z,98857.47
2022-12-06T05:25:29.720Z,98858.69
2022-12-06T05:27:58.733Z,98863.97
2022-12-06T05:30:27.514Z,98859.91
2022-12-06T05:32:57.186Z,98854.59
2022-12-06T05:35:25.983Z,98860.28
2022-12-06T05:37:55.671Z,98861.56
2022-12-06T05:40:24.600Z,98859.72
2022-12-06T05:42:54.745Z,98863.00
2022-12-06T05:45:23.842Z,98861.78
2022-12-06T05:47:57.808Z,98861.16
2022-12-06T05:50:26.616Z,98859.53
2022-12-06T05:52:55.640Z,98861.59
2022-12-06T05:55:24.438Z,98858.72
2022-12-06T05:57:55.537Z,98862.41
2022-12-06T06:00:24.468Z,98859.53
2022-12-06T06:02:53.301Z,98858.28
2022-12-06T06:05:22.964Z,98857.09
2022-12-06T06:07:52.253Z,98859.13
2022-12-06T06:10:21.461Z,98863.22
2022-12-06T06:12:50.569Z,98852.97
2022-12-06T06:15:21.062Z,98850.53
2022-12-06T06:17:49.772Z,98854.44
2022-12-06T06:20:18.635Z,98850.34
2022-12-06T06:22:47.340Z,98848.50
2022-12-06T06:25:16.209Z,98846.03
2022-12-06T06:27:44.933Z,98844.84
2022-12-06T06:30:15.084Z,98842.16
2022-12-06T06:32:45.401Z,98843.00
2022-12-06T06:35:14.161Z,98848.91
2022-12-06T06:37:42.857Z,98848.50
2022-12-06T06:40:12.492Z,98839.09
2022-12-06T06:42:41.383Z,98845.00
2022-12-06T06:45:11.372Z,98849.34
2022-12-06T06:47:40.159Z,98853.63
2022-12-06T06:50:11.192Z,98862.41
2022-12-06T06:52:39.871Z,98860.78
2022-12-06T06:55:09.827Z,98862.41
2022-12-06T06:57:41.089Z,98865.25
2022-12-06T07:00:11.528Z,98865.25
2022-12-06T07:02:40.325Z,98866.91
2022-12-06T07:05:11.167Z,98857.09
2022-12-06T07:07:40.154Z,98863.22
2022-12-06T07:10:10.600Z,98866.28
2022-12-06T07:12:39.421Z,98868.94
2022-12-06T07:15:09.782Z,98865.06
2022-12-06T07:17:38.565Z,98857.50
2022-12-06T07:20:10.979Z,98870.97
2022-12-06T07:22:39.826Z,98865.06
2022-12-06T07:25:09.631Z,98864.03
2022-12-06T07:27:38.439Z,98871.19
2022-12-06T07:30:12.162Z,98868.13
2022-12-06T07:32:43.232Z,98866.28
2022-12-06T07:35:13.457Z,98872.41
2022-12-06T07:37:44.179Z,98868.72
2022-12-06T07:40:15.547Z,98869.53
2022-12-06T07:43:01.757Z,98865.25
2022-12-06T07:45:30.800Z,98868.53
2022-12-06T07:47:59.654Z,98870.78
2022-12-06T07:50:29.803Z,98864.44
2022-12-06T07:53:00.366Z,98869.28
2022-12-06T07:55:29.103Z,98870.88
2022-12-06T07:57:57.838Z,98869.47
2022-12-06T08:00:26.849Z,98869.69
2022-12-06T08:02:55.565Z,98869.72
2022-12-06T08:05:24.366Z,98867.66
2022-12-06T08:07:54.660Z,98869.72
2022-12-06T08:10:23.446Z,98865.63
2022-12-06T08:12:52.182Z,98863.63
2022-12-06T08:15:20.898Z,98873.00
2022-12-06T08:17:49.664Z,98871.38
2022-12-06T08:20:18.660Z,98865.66
2022-12-06T08:22:47.433Z,98870.13
2022-12-06T08:25:17.769Z,98868.91
2022-12-06T08:27:46.522Z,98859.13
2022-12-06T08:30:15.811Z,98860.75
2022-12-06T08:32:44.679Z,98865.44
2022-12-06T08:35:13.438Z,98856.66
2022-12-06T08:37:42.201Z,98866.66
2022-12-06T08:40:11.956Z,98865.25
2022-12-06T08:42:43.540Z,98860.34
2022-12-06T08:45:13.076Z,98860.97
2022-12-06T08:47:41.841Z,98863.63
2022-12-06T08:50:11.409Z,98866.47
2022-12-06T08:52:40.216Z,98868.53
2022-12-06T08:55:10.066Z,98864.66
2022-12-06T08:57:38.768Z,98865.66
2022-12-06T09:00:11.743Z,98860.34
2022-12-06T09:02:41.159Z,98855.84
2022-12-06T09:05:11.066Z,98859.31
2022-12-06T09:07:39.901Z,98852.97
2022-12-06T09:10:10.441Z,98854.81
2022-12-06T09:12:39.179Z,98852.97
2022-12-06T09:15:11.007Z,98857.06
2022-12-06T09:17:39.787Z,98860.94
2022-12-06T09:20:10.280Z,98854.78
2022-12-06T09:22:39.065Z,98865.19
2022-12-06T09:25:08.579Z,98854.78
2022-12-06T09:27:37.371Z,98849.28
2022-12-06T09:30:09.551Z,98845.19
2022-12-06T09:32:38.345Z,98845.03
2022-12-06T09:35:13.868Z,98845.84
2022-12-06T09:37:45.116Z,98839.50
2022-12-06T09:40:25.045Z,98836.03
2022-12-06T09:43:10.551Z,98832.56
2022-12-06T09:46:11.419Z,98834.78
2022-12-06T09:49:10.230Z,98840.53
2022-12-06T09:51:57.846Z,98836.63
2022-12-06T09:54:55.889Z,98835.44
2022-12-06T09:57:42.676Z,98825.63
2022-12-06T10:00:22.246Z,98825.19
2022-12-06T10:03:29.169Z,98818.25
2022-12-06T10:06:05.489Z,98820.69
2022-12-06T10:08:54.952Z,98816.19
2022-12-06T10:11:44.711Z,98812.13
2022-12-06T10:14:34.193Z,98813.75
2022-12-06T10:17:12.459Z,98809.25
2022-12-06T10:19:56.265Z,98812.94
2022-12-06T10:22:47.274Z,98804.97
2022-12-06T10:25:24.930Z,98802.72
2022-12-06T10:28:09.970Z,98798.63
2022-12-06T10:30:53.348Z,98799.44
2022-12-06T10:33:38.274Z,98795.97
2022-12-06T10:36:13.589Z,98791.25
2022-12-06T10:38:52.781Z,98794.94
2022-12-06T10:41:30.100Z,98787.56
2022-12-06T10:44:08.369Z,98794.50
2022-12-06T10:47:05.114Z,98792.28
2022-12-06T10:49:45.842Z,98795.09
2022-12-06T10:52:27.205Z,98786.91
2022-12-06T10:55:15.559Z,98776.16
2022-12-06T10:57:53.069Z,98779.81
2022-12-06T11:00:24.753Z,98778.59
2022-12-06T11:03:04.178Z,98782.06
2022-12-06T11:05:42.068Z,98788.41
2022-12-06T11:08:17.890Z,98781.03
2022-12-06T11:10:48.841Z,98780.63
2022-12-06T11:13:27.561Z,98786.53
2022-12-06T11:16:04.726Z,98785.94
2022-12-06T11:18:35.027Z,98777.56
2022-12-06T11:21:15.332Z,98776.97
2022-12-06T11:23:57.532Z,98779.81
2022-12-06T11:26:39.332Z,98775.72
2022-12-06T11:29:14.331Z,98765.53
2022-12-06T11:31:48.007Z,98778.22
2022-12-06T11:34:23.520Z,98776.19
2022-12-06T11:36:59.884Z,98776.19
2022-12-06T11:39:32.777Z,98785.38
2022-12-06T11:42:05.619Z,98771.69
2022-12-06T11:44:46.421Z,98773.31
2022-12-06T11:47:22.047Z,98773.94
2022-12-06T11:49:53.857Z,98775.56
2022-12-06T11:52:31.836Z,98773.31
2022-12-06T11:55:08.475Z,98768.41
2022-12-06T11:57:47.431Z,98762.28
2022-12-06T12:00:20.651Z,98762.09
2022-12-06T12:02:53.456Z,98756.34
2022-12-06T12:05:26.364Z,98755.97
2022-12-06T12:08:00.287Z,98752.50
2022-12-06T12:10:35.868Z,98753.31
2022-12-06T12:13:39.917Z,98747.19
2022-12-06T12:16:19.528Z,98744.53
2022-12-06T12:18:58.260Z,98747.41
2022-12-06T12:21:42.538Z,98745.97
2022-12-06T12:27:46.896Z,98741.06
2022-12-06T12:30:39.308Z,98733.69
2022-12-06T12:33:22.024Z,98733.91
2022-12-06T12:35:55.345Z,98733.91
2022-12-06T12:38:42.283Z,98739.84
2022-12-06T12:41:32.544Z,98737.41
2022-12-06T12:44:35.847Z,98737.19
2022-12-06T12:46:59.423Z,98737.41
2022-12-06T12:49:35.051Z,98736.59
2022-12-06T12:52:28.379Z,98734.94
2022-12-06T12:55:02.648Z,98729.44
2022-12-06T12:57:31.730Z,98731.66
2022-12-06T13:00:02.109Z,98740.06
2022-12-06T13:02:36.236Z,98731.28
2022-12-06T13:05:32.469Z,98727.16
2022-12-06T13:10:43.335Z,98729.22
2022-12-06T13:13:18.284Z,98732.31
2022-12-06T13:15:50.123Z,98729.44
2022-12-06T13:18:25.709Z,98728.84
2022-12-06T13:20:59.130Z,98730.63
2022-12-06T13:23:34.001Z,98730.03
2022-12-06T13:26:18.063Z,98727.59
2022-12-06T13:28:54.875Z,98725.16
2022-12-06T13:31:34.143Z,98719.63
2022-12-06T13:34:16.925Z,98710.00
2022-12-06T13:36:46.715Z,98710.44
2022-12-06T13:39:40.860Z,98711.47
2022-12-06T13:42:43.656Z,98714.94
2022-12-06T13:45:42.346Z,98706.97
2022-12-06T13:48:39.787Z,98708.81
2022-12-06T13:51:13.708Z,98705.34
2022-12-06T13:54:37.546Z,98713.66
2022-12-06T13:57:34.912Z,98710.00
2022-12-06T14:00:04.193Z,98711.22
2022-12-06T14:02:47.055Z,98705.72
2022-12-06T14:08:35.674Z,98720.22
2022-12-06T14:11:25.110Z,98717.78
2022-12-06T14:14:09.186Z,98720.44
2022-12-06T14:16:43.910Z,98711.25
2022-12-06T14:19:21.276Z,98720.22
2022-12-06T14:21:57.764Z,98718.97
2022-12-06T14:24:34.561Z,98719.78
2022-12-06T14:27:12.383Z,98727.13
2022-12-06T14:29:44.499Z,98724.28
2022-12-06T14:32:13.553Z,98713.47
2022-12-06T14:34:42.350Z,98711.22
2022-12-06T14:37:22.960Z,98717.78
2022-12-06T14:39:54.261Z,98716.13
2022-12-06T14:42:41.225Z,98718.16
2022-12-06T14:45:17.566Z,98715.72
2022-12-06T14:47:47.199Z,98717.34
2022-12-06T14:50:34.363Z,98717.78
2022-12-06T14:53:08.376Z,98722.22
2022-12-06T14:55:39.812Z,98718.53
2022-12-06T14:58:26.571Z,98717.91
2022-12-06T15:01:18.564Z,98725.06
2022-12-06T15:03:59.947Z,98724.47
2022-12-06T15:06:33.249Z,98732.22
2022-12-06T15:09:15.745Z,98733.22
2022-12-06T15:12:02.883Z,98725.88
2022-12-06T15:14:51.139Z,98726.50
2022-12-06T15:17:26.070Z,98729.56
2022-12-06T15:19:55.545Z,98734.44
2022-12-06T15:22:29.525Z,98728.97
2022-12-06T15:25:00.403Z,98734.00
2022-12-06T15:27:29.269Z,98735.25
2022-12-06T15:29:58.133Z,98725.06
2022-12-06T15:32:28.932Z,98731.63
2022-12-06T15:34:58.107Z,98729.13
2022-12-06T15:37:47.435Z,98726.09
2022-12-06T15:40:17.017Z,98719.56
2022-12-06T15:42:45.834Z,98725.41
2022-12-06T15:45:17.333Z,98724.22
2022-12-06T15:47:49.759Z,98721.78
2022-12-06T15:50:19.522Z,98721.16
2022-12-06T15:52:48.573Z,98728.75
2022-12-06T15:55:19.799Z,98720.22
2022-12-06T15:57:48.642Z,98720.78
2022-12-06T16:00:18.791Z,98724.00
2022-12-06T16:02:49.886Z,98716.66
2022-12-06T16:05:20.050Z,98725.88
2022-12-06T16:07:49.767Z,98726.03
2022-12-06T16:10:22.569Z,98720.53
2022-12-06T16:13:11.041Z,98716.91
2022-12-06T16:15:39.953Z,98721.59
2022-12-06T16:18:10.427Z,98724.03
2022-12-06T16:20:41.155Z,98712.22
2022-12-06T16:24:04.209Z,98717.72
2022-12-06T16:26:22.992Z,98717.34
2022-12-06T16:28:51.766Z,98712.84
2022-12-06T16:31:23.230Z,98714.50
2022-12-06T16:33:57.863Z,98714.88
2022-12-06T16:36:30.835Z,98713.84
2022-12-06T16:39:04.758Z,98716.91
2022-12-06T16:41:37.273Z,98710.78
2022-12-06T16:44:06.728Z,98719.38
2022-12-06T16:46:37.446Z,98710.41
2022-12-06T16:52:08.390Z,98714.03
2022-12-06T16:54:42.017Z,98715.06
2022-12-06T16:57:12.911Z,98717.31
2022-12-06T16:59:48.077Z,98720.13
2022-12-06T17:02:29.607Z,98708.72
2022-12-06T17:05:03.195Z,98711.81
2022-12-06T17:07:39.152Z,98711.59
2022-12-06T17:10:09.787Z,98715.69
2022-12-06T17:12:38.686Z,98703.03
2022-12-06T17:15:13.388Z,98710.13
2022-12-06T17:17:42.663Z,98716.22
2022-12-06T17:20:17.561Z,98711.34
2022-12-06T17:22:46.845Z,98709.13
2022-12-06T17:25:17.515Z,98714.19
2022-12-06T17:27:46.659Z,98713.09
2022-12-06T17:30:18.606Z,98712.31
2022-12-06T17:32:48.801Z,98713.72
2022-12-06T17:35:19.207Z,98714.75
2022-12-06T17:37:47.953Z,98713.94
2022-12-06T17:40:17.276Z,98716.38
2022-12-06T17:43:00.159Z,98718.81
2022-12-06T17:45:29.178Z,98721.28
2022-12-06T17:48:23.869Z,98716.38
2022-12-06T17:50:55.536Z,98720.03
2022-12-06T17:53:31.166Z,98712.03
2022-12-06T17:56:39.535Z,98720.56
2022-12-06T17:59:13.922Z,98717.06
2022-12-06T18:02:13.677Z,98715.47
2022-12-06T18:04:37.691Z,98709.34
2022-12-06T18:07:16.386Z,98717.47
2022-12-06T18:09:49.722Z,98715.06
2022-12-06T18:12:22.422Z,98720.41
2022-12-06T18:14:56.599Z,98713.47
2022-12-06T18:17:28.388Z,98722.84
2022-12-06T18:21:14.626Z,98723.66
2022-12-06T18:24:13.123Z,98722.06
2022-12-06T18:26:37.100Z,98725.13
2022-12-06T18:29:09.394Z,98716.69
2022-12-06T18:31:42.321Z,98728.75
2022-12-06T18:34:13.566Z,98725.53
2022-12-06T18:36:43.328Z,98729.00
2022-12-06T18:39:24.256Z,98723.25
2022-12-06T18:41:56.454Z,98726.66
2022-12-06T18:44:27.436Z,98730.13
2022-12-06T18:46:57.085Z,98731.13
2022-12-06T18:49:30.789Z,98731.16
2022-12-06T18:52:08.037Z,98729.31
2022-12-06T18:54:39.545Z,98726.06
2022-12-06T18:57:08.775Z,98731.19
2022-12-06T18:59:38.470Z,98731.78
2022-12-06T19:02:16.498Z,98734.66
2022-12-06T19:04:47.618Z,98725.69
2022-12-06T19:07:23.669Z,98728.19
2022-12-06T19:09:56.376Z,98731.19
2022-12-06T19:12:25.192Z,98727.69
2022-12-06T19:15:00.396Z,98732.53
2022-12-06T19:17:29.648Z,98728.72
2022-12-06T19:19:58.717Z,98729.31
2022-12-06T19:22:28.019Z,98730.34
2022-12-06T19:25:08.008Z,98733.00
2022-12-06T19:27:37.545Z,98731.78
2022-12-06T19:30:08.828Z,98736.25
2022-12-06T19:32:38.135Z,98731.72
2022-12-06T19:36:23.717Z,98734.63
2022-12-06T19:38:57.638Z,98739.09
2022-12-06T19:41:28.871Z,98735.88
2022-12-06T19:44:17.755Z,98741.16
2022-12-06T19:46:55.009Z,98732.97
2022-12-06T19:49:27.829Z,98741.16
2022-12-06T19:52:13.908Z,98738.34
2022-12-06T19:54:46.354Z,98738.53
2022-12-06T19:57:19.519Z,98741.41
2022-12-06T19:59:48.304Z,98734.25
2022-12-06T20:02:17.365Z,98737.88
2022-12-06T20:04:59.764Z,98739.91
2022-12-06T20:07:28.850Z,98741.13
2022-12-06T20:09:58.254Z,98738.28
2022-12-06T20:12:28.931Z,98736.25
2022-12-06T20:14:57.824Z,98738.03
2022-12-06T20:17:26.828Z,98738.66
2022-12-06T20:19:57.024Z,98743.41
2022-12-06T20:22:26.182Z,98737.94
2022-12-06T20:24:55.076Z,98736.09
2022-12-06T20:27:44.093Z,98731.34
2022-12-06T20:30:18.835Z,98725.88
2022-12-06T20:32:51.304Z,98727.06
2022-12-06T20:35:20.196Z,98727.25
2022-12-06T20:37:52.291Z,98736.25
2022-12-06T20:40:23.555Z,98729.56
2022-12-06T20:42:56.102Z,98721.19
2022-12-06T20:45:26.734Z,98721.59
2022-12-06T20:47:55.566Z,98724.25
2022-12-06T20:50:27.913Z,98721.97
2022-12-06T20:52:56.702Z,98716.47
2022-12-06T20:55:27.703Z,98721.69
2022-12-06T20:57:56.616Z,98722.53
2022-12-06T21:00:27.316Z,98725.31
2022-12-06T21:02:56.778Z,98722.25
2022-12-06T21:05:25.706Z,98729.56
2022-12-06T21:09:15.453Z,98719.97
2022-12-06T21:11:44.680Z,98716.47
2022-12-06T21:14:16.189Z,98717.75
2022-12-06T21:16:47.428Z,98723.06
2022-12-06T21:19:20.026Z,98720.41
2022-12-06T21:21:57.193Z,98729.41
2022-12-06T21:24:26.025Z,98718.41
2022-12-06T21:26:54.965Z,98717.59
2022-12-06T21:29:30.607Z,98718.66
2022-12-06T21:32:02.517Z,98726.84
2022-12-06T21:34:31.348Z,98724.44
2022-12-06T21:41:21.644Z,98725.25
2022-12-06T21:43:49.599Z,98734.63
2022-12-06T21:46:21.744Z,98731.50
2022-12-06T21:48:52.821Z,98732.97
2022-12-06T21:51:22.996Z,98724.81
2022-12-06T21:53:52.783Z,98735.84
2022-12-06T21:56:29.503Z,98732.16
2022-12-06T21:59:01.194Z,98728.53
2022-12-06T22:01:32.839Z,98730.16
2022-12-06T22:04:04.742Z,98726.28
2022-12-06T22:06:35.842Z,98724.00
2022-12-06T22:09:07.074Z,98724.63
2022-12-06T22:11:38.081Z,98721.59
2022-12-06T22:14:09.910Z,98721.97
2022-12-06T22:16:39.949Z,98721.19
2022-12-06T22:19:09.507Z,98715.47
2022-12-06T22:21:38.517Z,98720.34
2022-12-06T22:24:08.428Z,98714.09
2022-12-06T22:26:38.770Z,98711.78
2022-12-06T22:29:07.618Z,98714.44
2022-12-06T22:31:37.280Z,98716.25
2022-12-06T22:34:06.833Z,98723.38
2022-12-06T22:36:35.706Z,98714.16
2022-12-06T22:39:06.590Z,98713.91
2022-12-06T22:41:37.220Z,98714.38
2022-12-06T22:44:08.333Z,98719.88
2022-12-06T22:46:38.075Z,98713.38
2022-12-06T22:49:07.535Z,98717.66
2022-12-06T22:51:40.463Z,98715.44
2022-12-06T22:54:13.302Z,98716.56
2022-12-06T22:56:48.833Z,98713.88
2022-12-06T22:59:20.916Z,98715.03
2022-12-06T23:01:49.668Z,98717.50
2022-12-06T23:04:18.517Z,98714.44
2022-12-06T23:06:47.317Z,98714.06
2022-12-06T23:09:17.611Z,98707.19
2022-12-06T23:11:47.848Z,98703.53
2022-12-06T23:14:16.670Z,98713.91
2022-12-06T23:16:45.596Z,98707.56
2022-12-06T23:19:14.418Z,98712.03
2022-12-06T23:21:43.251Z,98715.72
2022-12-06T23:24:16.326Z,98716.97
2022-12-06T23:26:51.992Z,98717.13
2022-12-06T23:29:24.980Z,98722.66
2022-12-06T23:31:53.786Z,98718.19
2022-12-06T23:34:26.766Z,98718.72
2022-12-06T23:36:57.301Z,98715.25
2022-12-06T23:39:26.227Z,98720.91
2022-12-06T23:41:56.681Z,98718.88
2022-12-06T23:44:25.477Z,98709.53
2022-12-06T23:46:54.472Z,98717.25
2022-12-06T23:49:23.899Z,98716.06
2022-12-06T23:51:53.170Z,98704.31
2022-12-06T23:54:21.892Z,98706.81
2022-12-06T23:56:50.596Z,98708.25
2022-12-06T23:59:20.835Z,98708.38
